createdAt,value
2023-04-29T00:03:51.730Z,15.45
2023-04-29T00:08:53.572Z,15.69
2023-04-29T00:13:55.337Z,14.76
2023-04-29T00:18:57.665Z,15.49
2023-04-29T00:24:00.141Z,15.38
2023-04-29T00:29:02.124Z,14.60
2023-04-29T00:34:03.970Z,14.15
2023-04-29T00:39:05.977Z,14.32
2023-04-29T00:44:07.882Z,15.24
2023-04-29T00:49:11.057Z,14.94
2023-04-29T00:54:13.766Z,14.82
2023-04-29T00:59:17.132Z,12.69
2023-04-29T01:04:19.219Z,13.95
2023-04-29T01:09:50.103Z,13.77
2023-04-29T01:15:05.785Z,14.30
2023-04-29T01:20:10.522Z,14.31
2023-04-29T01:25:12.460Z,13.20
2023-04-29T01:30:53.449Z,15.15
2023-04-29T01:36:22.613Z,15.01
2023-04-29T01:41:33.879Z,15.72
2023-04-29T01:46:50.901Z,14.78
2023-04-29T01:51:54.667Z,12.10
2023-04-29T01:56:57.479Z,14.21
2023-04-29T02:02:10.421Z,14.65
2023-04-29T02:07:19.559Z,13.87
2023-04-29T02:12:22.549Z,13.76
2023-04-29T02:17:24.592Z,14.01
2023-04-29T02:22:26.881Z,14.12
2023-04-29T02:27:32.526Z,14.17
2023-04-29T02:32:34.345Z,14.44
2023-04-29T02:37:36.274Z,14.83
2023-04-29T02:42:38.329Z,15.08
2023-04-29T02:47:40.222Z,15.24
2023-04-29T02:52:42.390Z,15.05
2023-04-29T02:57:44.511Z,14.23
2023-04-29T03:02:46.427Z,14.49
2023-04-29T03:07:49.645Z,14.68
2023-04-29T03:12:51.564Z,13.59
2023-04-29T03:17:53.443Z,12.62
2023-04-29T03:22:55.440Z,9.52
2023-04-29T03:27:57.324Z,11.58
2023-04-29T03:32:59.698Z,12.42
2023-04-29T03:38:03.555Z,11.74
2023-04-29T03:43:09.386Z,12.94
2023-04-29T03:48:12.517Z,14.29
2023-04-29T03:53:15.265Z,11.19
2023-04-29T03:58:17.244Z,11.92
2023-04-29T04:03:19.774Z,12.89
2023-04-29T04:08:21.808Z,12.80
2023-04-29T04:13:30.320Z,14.79
2023-04-29T04:18:32.650Z,14.69
2023-04-29T04:23:34.888Z,15.24
2023-04-29T04:28:38.217Z,15.12
2023-04-29T04:33:44.578Z,15.64
2023-04-29T04:38:47.335Z,14.52
2023-04-29T04:43:49.571Z,15.48
2023-04-29T04:49:17.737Z,15.09
2023-04-29T04:54:25.226Z,15.63
2023-04-29T04:59:35.778Z,15.25
2023-04-29T05:04:37.882Z,15.76
2023-04-29T05:09:39.794Z,14.37
2023-04-29T05:14:41.672Z,14.55
2023-04-29T05:19:43.742Z,14.53
2023-04-29T05:24:48.273Z,14.17
2023-04-29T05:29:51.643Z,15.02
2023-04-29T05:34:53.802Z,14.97
2023-04-29T05:39:56.090Z,12.79
2023-04-29T05:44:58.445Z,12.26
2023-04-29T05:50:00.273Z,13.91
2023-04-29T05:55:03.750Z,13.59
2023-04-29T06:00:07.227Z,13.39
2023-04-29T06:05:15.915Z,14.21
2023-04-29T06:10:29.500Z,14.50
2023-04-29T06:15:31.665Z,13.58
2023-04-29T06:20:34.900Z,14.22
2023-04-29T06:25:38.101Z,12.97
2023-04-29T06:30:42.169Z,12.72
2023-04-29T06:35:44.851Z,14.50
2023-04-29T06:41:05.301Z,14.68
2023-04-29T06:46:28.013Z,14.61
2023-04-29T06:51:38.052Z,14.50
2023-04-29T06:56:39.959Z,15.03
2023-04-29T07:01:44.278Z,15.27
2023-04-29T07:06:47.340Z,15.58
2023-04-29T07:11:49.519Z,15.13
2023-04-29T07:16:55.408Z,15.33
2023-04-29T07:21:57.871Z,15.39
2023-04-29T07:26:59.941Z,13.61
2023-04-29T07:32:01.789Z,15.70
2023-04-29T07:37:03.938Z,15.70
2023-04-29T07:42:06.152Z,15.65
2023-04-29T07:47:08.240Z,15.51
2023-04-29T07:52:10.367Z,16.27
2023-04-29T07:57:12.295Z,16.18
2023-04-29T08:02:16.631Z,16.76
2023-04-29T08:07:18.652Z,17.17
2023-04-29T08:12:20.526Z,17.30
2023-04-29T08:17:22.612Z,17.10
2023-04-29T08:22:24.738Z,16.68
2023-04-29T08:27:27.106Z,16.73
2023-04-29T08:32:29.029Z,17.41
2023-04-29T08:37:30.947Z,17.80
2023-04-29T08:42:35.104Z,17.55
2023-04-29T08:47:37.915Z,16.88
2023-04-29T08:52:39.886Z,15.24
2023-04-29T08:57:43.329Z,15.99
2023-04-29T09:02:49.691Z,15.95
2023-04-29T09:07:52.601Z,15.21
2023-04-29T09:13:01.350Z,14.88
2023-04-29T09:18:03.298Z,16.16
2023-04-29T09:23:05.237Z,16.50
2023-04-29T09:28:19.107Z,15.22
2023-04-29T09:33:20.963Z,13.43
2023-04-29T09:38:22.865Z,13.84
2023-04-29T09:43:24.690Z,13.37
2023-04-29T09:48:33.741Z,14.99
2023-04-29T09:53:38.259Z,15.35
2023-04-29T09:58:40.517Z,14.81
2023-04-29T10:03:43.795Z,15.18
2023-04-29T10:08:47.225Z,16.47
2023-04-29T10:13:52.228Z,16.37
2023-04-29T10:18:56.452Z,15.94
2023-04-29T10:23:59.864Z,15.44
2023-04-29T10:29:03.534Z,14.65
2023-04-29T10:34:05.394Z,13.35
2023-04-29T10:39:17.139Z,15.87
2023-04-29T10:44:19.201Z,14.93
2023-04-29T10:49:23.632Z,13.60
2023-04-29T10:54:27.976Z,14.82
2023-04-29T10:59:32.567Z,16.31
2023-04-29T11:04:34.492Z,14.62
2023-04-29T11:09:38.672Z,14.57
2023-04-29T11:14:40.449Z,15.93
2023-04-29T11:19:51.008Z,16.36
2023-04-29T11:24:56.930Z,16.01
2023-04-29T11:30:00.891Z,16.96
2023-04-29T11:35:15.635Z,16.91
2023-04-29T11:40:17.532Z,17.21
2023-04-29T11:45:20.138Z,17.57
2023-04-29T11:50:22.103Z,16.50
2023-04-29T11:55:26.005Z,15.95
2023-04-29T12:00:27.893Z,15.96
2023-04-29T12:05:30.211Z,16.86
2023-04-29T12:10:32.618Z,17.10
2023-04-29T12:15:35.559Z,11.92
2023-04-29T12:20:39.295Z,10.63
2023-04-29T12:25:41.726Z,11.28
2023-04-29T12:30:51.664Z,10.26
2023-04-29T12:35:58.580Z,11.71
2023-04-29T12:41:05.567Z,11.58
2023-04-29T12:46:08.750Z,11.52
2023-04-29T12:51:11.476Z,11.07
2023-04-29T12:56:13.633Z,12.04
2023-04-29T13:01:18.360Z,11.90
2023-04-29T13:06:20.530Z,15.02
2023-04-29T13:11:22.416Z,15.25
2023-04-29T13:16:25.233Z,15.67
2023-04-29T13:21:28.018Z,15.42
2023-04-29T13:26:30.335Z,16.46
2023-04-29T13:31:32.443Z,17.60
2023-04-29T13:36:34.197Z,16.13
2023-04-29T13:41:36.015Z,14.79
2023-04-29T13:46:38.296Z,16.55
2023-04-29T14:06:56.590Z,17.28
2023-04-29T14:11:58.411Z,16.61
2023-04-29T14:17:01.424Z,17.06
2023-04-29T14:22:03.348Z,17.82
2023-04-29T14:27:05.262Z,18.13
2023-04-29T14:32:07.571Z,17.51
2023-04-29T14:37:09.502Z,17.16
2023-04-29T14:42:12.782Z,17.72
2023-04-29T14:47:14.663Z,18.03
2023-04-29T14:52:16.608Z,16.61
2023-04-29T14:57:18.476Z,18.00
2023-04-29T15:02:20.378Z,15.48
2023-04-29T15:07:22.883Z,17.13
2023-04-29T15:12:25.150Z,18.42
2023-04-29T15:17:27.085Z,18.59
2023-04-29T15:22:29.224Z,18.23
2023-04-29T15:27:31.047Z,17.24
2023-04-29T15:32:33.231Z,14.79
2023-04-29T15:37:35.329Z,15.60
2023-04-29T15:42:37.173Z,15.65
2023-04-29T15:47:39.183Z,14.72
2023-04-29T15:52:41.262Z,13.32
2023-04-29T15:57:43.221Z,13.15
2023-04-29T16:02:45.168Z,13.72
2023-04-29T16:07:47.082Z,15.07
2023-04-29T16:12:49.201Z,16.64
2023-04-29T16:17:52.022Z,16.30
2023-04-29T16:22:55.135Z,11.83
2023-04-29T16:27:57.823Z,12.26
2023-04-29T16:32:59.855Z,13.25
2023-04-29T16:38:02.691Z,12.46
2023-04-29T16:43:04.652Z,13.89
2023-04-29T16:48:07.101Z,14.77
2023-04-29T16:53:08.958Z,14.23
2023-04-29T16:58:10.841Z,15.04
2023-04-29T17:03:13.005Z,17.32
2023-04-29T17:08:15.077Z,18.57
2023-04-29T17:13:16.931Z,18.96
2023-04-29T17:18:20.035Z,19.38
2023-04-29T17:23:22.080Z,18.79
2023-04-29T17:28:24.110Z,17.62
2023-04-29T17:33:34.311Z,19.24
2023-04-29T17:38:36.349Z,17.47
2023-04-29T17:43:38.164Z,15.74
2023-04-29T17:48:39.977Z,17.01
2023-04-29T17:53:42.350Z,18.86
2023-04-29T17:58:44.191Z,18.56
2023-04-29T18:03:47.117Z,19.57
2023-04-29T18:08:49.038Z,19.23
2023-04-29T18:13:52.973Z,18.79
2023-04-29T18:18:56.737Z,19.33
2023-04-29T18:23:59.262Z,17.53
2023-04-29T18:29:01.198Z,17.38
2023-04-29T18:34:03.411Z,18.01
2023-04-29T18:39:05.231Z,18.02
2023-04-29T18:44:07.064Z,17.96
2023-04-29T18:49:11.823Z,17.60
2023-04-29T18:54:19.064Z,15.61
2023-04-29T18:59:21.051Z,15.02
2023-04-29T19:04:23.062Z,16.27
2023-04-29T19:09:24.917Z,16.63
2023-04-29T19:14:27.005Z,15.69
2023-04-29T19:19:30.228Z,14.63
2023-04-29T19:24:32.808Z,15.54
2023-04-29T19:29:34.678Z,15.04
2023-04-29T19:34:36.696Z,14.56
2023-04-29T19:39:38.578Z,14.57
2023-04-29T19:44:40.432Z,13.59
2023-04-29T19:49:42.594Z,13.82
2023-04-29T19:54:44.472Z,13.82
2023-04-29T19:59:46.397Z,13.38
2023-04-29T20:04:48.299Z,14.38
2023-04-29T20:09:50.216Z,14.35
2023-04-29T20:14:52.102Z,13.91
2023-04-29T20:19:54.289Z,13.75
2023-04-29T20:24:56.589Z,13.95
2023-04-29T20:29:58.518Z,13.55
2023-04-29T20:35:00.672Z,13.31
2023-04-29T20:40:02.989Z,14.55
2023-04-29T20:45:06.821Z,13.93
2023-04-29T20:50:09.066Z,13.76
2023-04-29T20:55:11.270Z,14.29
2023-04-29T21:00:14.284Z,14.27
2023-04-29T21:05:16.274Z,14.48
2023-04-29T21:10:18.184Z,14.34
2023-04-29T21:15:20.116Z,14.32
2023-04-29T21:20:22.353Z,13.05
2023-04-29T21:25:24.626Z,13.56
2023-04-29T21:30:26.888Z,13.76
2023-04-29T21:35:29.031Z,14.46
2023-04-29T21:40:30.942Z,14.34
2023-04-29T21:45:33.034Z,14.59
2023-04-29T21:50:34.911Z,14.57
2023-04-29T21:55:37.391Z,14.60
2023-04-29T22:00:41.958Z,13.87
2023-04-29T22:05:44.071Z,13.14
2023-04-29T22:10:46.228Z,14.29
2023-04-29T22:15:48.211Z,14.52
2023-04-29T22:20:50.159Z,14.60
2023-04-29T22:25:52.056Z,14.10
2023-04-29T22:30:54.589Z,14.16
2023-04-29T22:35:56.553Z,14.09
2023-04-29T22:40:58.475Z,13.58
2023-04-29T22:46:00.370Z,14.13
2023-04-29T22:51:03.870Z,14.25
2023-04-29T22:56:05.808Z,13.82
2023-04-29T23:01:10.048Z,13.80
2023-04-29T23:06:13.751Z,14.38
2023-04-29T23:11:16.110Z,14.03
2023-04-29T23:16:17.951Z,13.83
2023-04-29T23:21:19.778Z,14.16
2023-04-29T23:26:23.260Z,14.03
2023-04-29T23:31:25.111Z,14.13
2023-04-29T23:36:27.846Z,14.41
2023-04-29T23:41:29.611Z,14.92
2023-04-29T23:46:31.499Z,14.33
2023-04-29T23:51:34.130Z,13.72
2023-04-29T23:56:35.869Z,12.75
